createdAt,value
2018-11-06T00:00:33.669Z,7.37
2018-11-06T00:01:41.723Z,7.37
2018-11-06T00:02:49.785Z,7.34
2018-11-06T00:03:57.833Z,7.27
2018-11-06T00:05:05.902Z,7.27
2018-11-06T00:06:13.969Z,7.27
2018-11-06T00:07:22.029Z,7.30
2018-11-06T00:08:30.081Z,7.24
2018-11-06T00:09:38.140Z,7.17
2018-11-06T00:10:46.203Z,7.20
2018-11-06T00:11:54.261Z,7.16
2018-11-06T00:13:02.313Z,7.13
2018-11-06T00:14:10.379Z,7.13
2018-11-06T00:15:18.452Z,7.05
2018-11-06T00:16:26.513Z,6.99
2018-11-06T00:17:34.552Z,6.91
2018-11-06T00:18:42.628Z,6.95
2018-11-06T00:19:50.707Z,7.05
2018-11-06T00:20:58.750Z,6.98
2018-11-06T00:22:06.820Z,6.97
2018-11-06T00:23:14.858Z,6.89
2018-11-06T00:24:22.909Z,6.92
2018-11-06T00:25:31.001Z,6.98
2018-11-06T00:26:39.036Z,6.94
2018-11-06T00:27:47.112Z,7.03
2018-11-06T00:28:55.139Z,7.02
2018-11-06T00:30:03.234Z,7.05
2018-11-06T00:31:11.285Z,7.09
2018-11-06T00:32:19.370Z,7.03
2018-11-06T00:33:27.416Z,7.06
2018-11-06T00:34:35.490Z,6.85
2018-11-06T00:35:43.528Z,6.94
2018-11-06T00:36:51.598Z,6.94
2018-11-06T00:37:59.651Z,6.88
2018-11-06T00:39:07.722Z,7.07
2018-11-06T00:40:15.755Z,7.12
2018-11-06T00:41:23.842Z,7.03
2018-11-06T00:42:31.879Z,7.07
2018-11-06T00:43:39.939Z,7.16
2018-11-06T00:44:48.013Z,7.13
2018-11-06T00:45:56.063Z,7.12
2018-11-06T00:47:04.111Z,7.20
2018-11-06T00:48:12.196Z,7.23
2018-11-06T00:49:20.263Z,7.24
2018-11-06T00:50:28.297Z,7.17
2018-11-06T00:51:36.374Z,7.17
2018-11-06T00:52:44.429Z,7.16
2018-11-06T00:53:52.501Z,7.23
2018-11-06T00:55:00.560Z,7.40
2018-11-06T00:56:08.612Z,7.48
2018-11-06T00:57:16.661Z,7.57
2018-11-06T00:58:24.714Z,7.50
2018-11-06T00:59:32.783Z,7.35
2018-11-06T01:00:40.840Z,7.40
2018-11-06T01:01:48.954Z,7.37
2018-11-06T01:02:56.968Z,7.27
2018-11-06T01:04:05.026Z,7.23
2018-11-06T01:05:13.080Z,7.32
2018-11-06T01:06:21.141Z,7.27
2018-11-06T01:07:29.284Z,7.32
2018-11-06T01:08:37.253Z,7.27
2018-11-06T01:09:45.325Z,7.25
2018-11-06T01:10:53.408Z,7.23
2018-11-06T01:12:01.439Z,7.25
2018-11-06T01:13:09.518Z,7.21
2018-11-06T01:14:17.569Z,7.10
2018-11-06T01:15:25.617Z,7.17
2018-11-06T01:16:33.689Z,7.13
2018-11-06T01:17:41.807Z,7.13
2018-11-06T01:18:49.799Z,7.15
2018-11-06T01:19:57.885Z,7.12
2018-11-06T01:21:05.930Z,7.13
2018-11-06T01:22:13.997Z,7.16
2018-11-06T01:23:22.038Z,7.12
2018-11-06T01:24:30.096Z,7.15
2018-11-06T01:25:38.172Z,7.07
2018-11-06T01:26:46.242Z,7.09
2018-11-06T01:27:54.283Z,7.03
2018-11-06T01:29:02.362Z,7.07
2018-11-06T01:30:10.421Z,7.05
2018-11-06T01:31:18.482Z,6.99
2018-11-06T01:32:26.513Z,7.03
2018-11-06T01:33:34.578Z,7.10
2018-11-06T01:34:43.474Z,7.05
2018-11-06T01:35:50.710Z,7.13
2018-11-06T01:36:58.757Z,7.25
2018-11-06T01:38:06.836Z,7.24
2018-11-06T01:39:14.906Z,7.31
2018-11-06T01:40:22.937Z,7.32
2018-11-06T01:41:30.997Z,7.27
2018-11-06T01:42:39.097Z,7.30
2018-11-06T01:43:47.129Z,7.40
2018-11-06T01:44:55.186Z,7.40
2018-11-06T01:46:03.265Z,7.39
2018-11-06T01:47:11.297Z,7.39
2018-11-06T01:48:19.409Z,7.30
2018-11-06T01:49:27.433Z,7.37
2018-11-06T01:50:35.486Z,7.39
2018-11-06T01:51:43.572Z,7.50
2018-11-06T01:52:51.621Z,7.53
2018-11-06T01:53:59.696Z,7.53
2018-11-06T01:55:07.728Z,7.60
2018-11-06T01:56:15.816Z,7.67
2018-11-06T01:57:23.842Z,7.60
2018-11-06T01:58:31.912Z,7.61
2018-11-06T01:59:39.970Z,7.61
2018-11-06T02:00:48.045Z,7.64
2018-11-06T02:01:56.113Z,7.69
2018-11-06T02:03:04.160Z,7.74
2018-11-06T02:04:12.240Z,7.77
2018-11-06T02:05:20.276Z,7.68
2018-11-06T02:06:28.362Z,7.72
2018-11-06T02:07:36.402Z,7.74
2018-11-06T02:08:44.439Z,7.74
2018-11-06T02:09:52.524Z,7.71
2018-11-06T02:11:00.582Z,7.74
2018-11-06T02:12:08.623Z,7.71
2018-11-06T02:13:16.697Z,7.71
2018-11-06T02:14:24.755Z,7.69
2018-11-06T02:15:32.828Z,7.71
2018-11-06T02:16:40.892Z,7.64
2018-11-06T02:17:48.946Z,7.58
2018-11-06T02:18:57.008Z,7.74
2018-11-06T02:20:05.071Z,7.82
2018-11-06T02:21:13.137Z,7.75
2018-11-06T02:22:21.165Z,7.80
2018-11-06T02:23:29.243Z,7.79
2018-11-06T02:24:37.325Z,7.80
2018-11-06T02:25:45.355Z,7.79
2018-11-06T02:26:53.458Z,7.75
2018-11-06T02:28:01.501Z,7.69
2018-11-06T02:29:09.579Z,7.74
2018-11-06T02:30:17.611Z,7.60
2018-11-06T02:31:25.694Z,7.67
2018-11-06T02:32:33.766Z,7.61
2018-11-06T02:33:41.792Z,7.50
2018-11-06T02:34:49.846Z,7.43
2018-11-06T02:35:57.915Z,7.43
2018-11-06T02:37:05.997Z,7.43
2018-11-06T02:38:14.007Z,7.31
2018-11-06T02:39:22.106Z,7.42
2018-11-06T02:40:30.170Z,7.37
2018-11-06T02:41:38.226Z,7.37
2018-11-06T02:42:46.278Z,7.42
2018-11-06T02:43:54.319Z,7.32
2018-11-06T02:45:02.410Z,7.40
2018-11-06T02:46:10.473Z,7.37
2018-11-06T02:47:18.523Z,7.32
2018-11-06T02:48:26.607Z,7.43
2018-11-06T02:49:34.660Z,7.31
2018-11-06T02:50:42.704Z,7.35
2018-11-06T02:51:50.766Z,7.42
2018-11-06T02:52:58.811Z,7.39
2018-11-06T02:54:06.878Z,7.37
2018-11-06T02:55:14.973Z,7.35
2018-11-06T02:56:23.012Z,7.34
2018-11-06T02:57:31.064Z,7.25
2018-11-06T02:58:39.123Z,7.32
2018-11-06T02:59:47.183Z,7.27
2018-11-06T03:00:55.270Z,7.21
2018-11-06T03:02:03.310Z,7.15
2018-11-06T03:03:11.378Z,7.10
2018-11-06T03:04:19.423Z,7.15
2018-11-06T03:05:27.481Z,7.13
2018-11-06T03:06:35.534Z,7.06
2018-11-06T03:07:43.607Z,6.88
2018-11-06T03:08:51.662Z,6.91
2018-11-06T03:09:59.727Z,6.95
2018-11-06T03:11:07.792Z,7.07
2018-11-06T03:12:15.861Z,7.05
2018-11-06T03:13:23.910Z,7.07
2018-11-06T03:14:31.965Z,7.02
2018-11-06T03:15:40.029Z,7.10
2018-11-06T03:16:48.187Z,7.13
2018-11-06T03:17:56.163Z,7.10
2018-11-06T03:19:04.226Z,7.13
2018-11-06T03:20:12.266Z,7.13
2018-11-06T03:21:20.339Z,7.17
2018-11-06T03:22:28.384Z,7.02
2018-11-06T03:23:36.455Z,7.03
2018-11-06T03:24:44.513Z,7.07
2018-11-06T03:25:52.579Z,6.99
2018-11-06T03:27:00.740Z,7.10
2018-11-06T03:28:08.692Z,6.97
2018-11-06T03:29:16.754Z,6.88
2018-11-06T03:30:24.815Z,6.98
2018-11-06T03:31:32.880Z,7.03
2018-11-06T03:32:40.951Z,6.95
2018-11-06T03:33:48.989Z,6.94
2018-11-06T03:34:57.056Z,6.94
2018-11-06T03:36:05.120Z,6.89
2018-11-06T03:37:13.196Z,6.91
2018-11-06T03:38:21.246Z,6.91
2018-11-06T03:39:29.318Z,6.94
2018-11-06T03:40:37.355Z,6.89
2018-11-06T03:41:45.425Z,6.94
2018-11-06T03:42:53.476Z,6.97
2018-11-06T03:44:01.528Z,6.95
2018-11-06T03:45:09.597Z,6.92
2018-11-06T03:46:17.661Z,7.02
2018-11-06T03:47:25.733Z,7.06
2018-11-06T03:48:33.785Z,6.98
2018-11-06T03:49:41.837Z,7.12
2018-11-06T03:50:49.908Z,7.06
2018-11-06T03:51:57.980Z,6.89
2018-11-06T03:53:06.010Z,6.91
2018-11-06T03:54:14.098Z,6.98
2018-11-06T03:55:22.142Z,6.97
2018-11-06T03:56:30.201Z,6.97
2018-11-06T03:57:38.259Z,6.95
2018-11-06T03:58:46.310Z,6.89
2018-11-06T03:59:54.372Z,6.88
2018-11-06T04:01:02.454Z,6.87
2018-11-06T04:02:10.506Z,6.87
2018-11-06T04:03:18.570Z,6.91
2018-11-06T04:04:26.616Z,6.98
2018-11-06T04:05:34.672Z,6.94
2018-11-06T04:06:42.759Z,6.85
2018-11-06T04:07:50.799Z,6.81
2018-11-06T04:08:58.864Z,6.76
2018-11-06T04:10:06.919Z,6.87
2018-11-06T04:11:14.980Z,6.85
2018-11-06T04:12:23.056Z,6.84
2018-11-06T04:13:31.113Z,6.79
2018-11-06T04:14:39.174Z,6.79
2018-11-06T04:15:47.227Z,6.81
2018-11-06T04:16:55.281Z,6.79
2018-11-06T04:18:03.345Z,6.71
2018-11-06T04:19:11.406Z,6.77
2018-11-06T04:20:19.468Z,6.66
2018-11-06T04:21:27.522Z,6.66
2018-11-06T04:22:35.591Z,6.64
2018-11-06T04:23:43.613Z,6.62
2018-11-06T04:24:51.703Z,6.66
2018-11-06T04:25:59.776Z,6.62
2018-11-06T04:27:07.818Z,6.58
2018-11-06T04:28:15.896Z,6.52
2018-11-06T04:29:23.942Z,6.54
2018-11-06T04:30:31.990Z,6.54
2018-11-06T04:31:40.090Z,6.48
2018-11-06T04:32:48.112Z,6.52
2018-11-06T04:33:56.176Z,6.48
2018-11-06T04:35:04.226Z,6.46
2018-11-06T04:36:12.304Z,6.46
2018-11-06T04:37:20.362Z,6.40
2018-11-06T04:38:28.410Z,6.48
2018-11-06T04:39:36.497Z,6.46
2018-11-06T04:40:44.527Z,6.48
2018-11-06T04:41:52.642Z,6.44
2018-11-06T04:43:00.684Z,6.48
2018-11-06T04:44:08.729Z,6.55
2018-11-06T04:45:16.784Z,6.55
2018-11-06T04:46:24.830Z,6.54
2018-11-06T04:47:32.938Z,6.58
2018-11-06T04:48:40.978Z,6.67
2018-11-06T04:49:49.015Z,6.61
2018-11-06T04:50:57.074Z,6.62
2018-11-06T04:52:05.145Z,6.79
2018-11-06T04:53:13.195Z,6.95
2018-11-06T04:54:21.247Z,6.99
2018-11-06T04:55:29.325Z,7.09
2018-11-06T04:56:37.375Z,6.95
2018-11-06T04:57:45.445Z,7.02
2018-11-06T04:58:53.524Z,7.02
2018-11-06T05:00:01.578Z,7.07
2018-11-06T05:01:09.661Z,7.27
2018-11-06T05:02:17.824Z,7.40
2018-11-06T05:03:25.732Z,7.45
2018-11-06T05:04:33.809Z,7.53
2018-11-06T05:05:41.864Z,7.53
2018-11-06T05:06:49.995Z,7.63
2018-11-06T05:07:57.989Z,7.57
2018-11-06T05:09:06.047Z,7.52
2018-11-06T05:10:14.115Z,7.53
2018-11-06T05:11:22.162Z,7.52
2018-11-06T05:12:30.219Z,7.52
2018-11-06T05:13:38.300Z,7.46
2018-11-06T05:14:46.333Z,7.61
2018-11-06T05:15:54.392Z,7.53
2018-11-06T05:17:02.476Z,7.50
2018-11-06T05:18:10.504Z,7.52
2018-11-06T05:19:18.592Z,7.46
2018-11-06T05:20:26.646Z,7.40
2018-11-06T05:21:34.684Z,7.35
2018-11-06T05:22:42.763Z,7.34
2018-11-06T05:23:50.817Z,7.40
2018-11-06T05:24:58.881Z,7.34
2018-11-06T05:26:07.615Z,7.40
2018-11-06T05:27:15.096Z,7.40
2018-11-06T05:28:23.064Z,7.40
2018-11-06T05:29:31.114Z,7.42
2018-11-06T05:30:39.191Z,7.35
2018-11-06T05:31:47.248Z,7.34
2018-11-06T05:32:55.427Z,7.32
2018-11-06T05:34:03.370Z,7.37
2018-11-06T05:35:11.418Z,7.35
2018-11-06T05:36:19.515Z,7.37
2018-11-06T05:37:27.585Z,7.32
2018-11-06T05:38:35.599Z,7.31
2018-11-06T05:39:43.683Z,7.28
2018-11-06T05:40:51.749Z,7.24
2018-11-06T05:41:59.962Z,7.24
2018-11-06T05:43:07.828Z,7.24
2018-11-06T05:44:15.916Z,7.15
2018-11-06T05:45:23.997Z,7.16
2018-11-06T05:46:32.027Z,7.09
2018-11-06T05:47:40.074Z,7.15
2018-11-06T05:48:48.150Z,7.13
2018-11-06T05:49:56.215Z,7.15
2018-11-06T05:51:04.258Z,7.12
2018-11-06T05:52:12.316Z,7.13
2018-11-06T05:53:20.391Z,7.02
2018-11-06T05:54:28.433Z,6.91
2018-11-06T05:55:37.124Z,6.98
2018-11-06T05:56:44.643Z,6.85
2018-11-06T05:57:52.637Z,6.88
2018-11-06T05:59:00.685Z,6.76
2018-11-06T06:00:08.760Z,6.71
2018-11-06T06:01:17.399Z,6.62
2018-11-06T06:02:24.867Z,6.67
2018-11-06T06:03:33.037Z,6.59
2018-11-06T06:04:40.980Z,6.62
2018-11-06T06:05:49.042Z,6.62
2018-11-06T06:06:57.126Z,6.69
2018-11-06T06:08:05.154Z,6.52
2018-11-06T06:09:13.378Z,6.58
2018-11-06T06:10:21.300Z,6.61
2018-11-06T06:11:29.344Z,6.58
2018-11-06T06:12:37.412Z,6.55
2018-11-06T06:13:45.480Z,6.62
2018-11-06T06:14:53.560Z,6.61
2018-11-06T06:16:01.582Z,6.79
2018-11-06T06:17:09.650Z,6.80
2018-11-06T06:18:17.699Z,6.76
2018-11-06T06:19:25.788Z,6.84
2018-11-06T06:20:33.826Z,6.91
2018-11-06T06:21:41.900Z,6.95
2018-11-06T06:22:49.962Z,6.97
2018-11-06T06:23:58.016Z,7.16
2018-11-06T06:25:06.069Z,7.16
2018-11-06T06:26:14.117Z,7.24
2018-11-06T06:27:22.185Z,7.27
2018-11-06T06:28:30.329Z,7.37
2018-11-06T06:29:38.311Z,7.39
2018-11-06T06:30:46.371Z,7.52
2018-11-06T06:31:54.432Z,7.48
2018-11-06T06:33:02.504Z,7.53
2018-11-06T06:34:10.568Z,7.53
2018-11-06T06:35:18.822Z,7.69
2018-11-06T06:36:26.687Z,7.77
2018-11-06T06:37:34.705Z,7.92
2018-11-06T06:38:42.847Z,8.19
2018-11-06T06:39:50.851Z,8.28
2018-11-06T06:40:59.008Z,8.25
2018-11-06T06:42:06.979Z,8.22
2018-11-06T06:43:15.003Z,8.26
2018-11-06T06:44:23.096Z,8.22
2018-11-06T06:45:31.150Z,8.33
2018-11-06T06:46:39.208Z,8.34
2018-11-06T06:47:47.284Z,8.33
2018-11-06T06:48:55.336Z,8.29
2018-11-06T06:50:03.399Z,8.29
2018-11-06T06:51:11.475Z,8.34
2018-11-06T06:52:19.509Z,8.33
2018-11-06T06:53:27.589Z,8.43
2018-11-06T06:54:35.832Z,8.44
2018-11-06T06:55:43.735Z,8.40
2018-11-06T06:56:51.767Z,8.29
2018-11-06T06:57:59.841Z,8.41
2018-11-06T06:59:07.891Z,8.34
2018-11-06T07:00:15.919Z,8.28
2018-11-06T07:01:24.014Z,8.37
2018-11-06T07:02:32.167Z,8.34
2018-11-06T07:03:40.117Z,8.41
2018-11-06T07:04:48.190Z,8.56
2018-11-06T07:05:56.233Z,8.61
2018-11-06T07:07:04.311Z,8.56
2018-11-06T07:08:12.358Z,8.74
2018-11-06T07:09:20.458Z,8.81
2018-11-06T07:10:28.498Z,8.80
2018-11-06T07:11:36.550Z,8.79
2018-11-06T07:12:44.635Z,8.81
2018-11-06T07:13:52.681Z,8.89
2018-11-06T07:15:00.756Z,8.95
2018-11-06T07:16:08.804Z,8.98
2018-11-06T07:17:16.892Z,8.99
2018-11-06T07:18:24.918Z,8.99
2018-11-06T07:19:32.999Z,8.96
2018-11-06T07:20:41.032Z,8.98
2018-11-06T07:21:49.089Z,9.02
2018-11-06T07:22:57.179Z,9.02
2018-11-06T07:24:05.231Z,8.99
2018-11-06T07:25:13.310Z,9.15
2018-11-06T07:26:21.362Z,9.21
2018-11-06T07:27:29.412Z,9.26
2018-11-06T07:28:37.491Z,9.32
2018-11-06T07:29:45.532Z,9.33
2018-11-06T07:30:53.606Z,9.39
2018-11-06T07:32:01.674Z,9.46
2018-11-06T07:33:09.721Z,9.51
2018-11-06T07:34:17.793Z,9.50
2018-11-06T07:35:26.005Z,9.48
2018-11-06T07:36:33.913Z,9.61
2018-11-06T07:37:41.968Z,9.57
2018-11-06T07:38:50.043Z,9.57
2018-11-06T07:39:58.125Z,9.68
2018-11-06T07:41:06.262Z,9.69
2018-11-06T07:42:14.225Z,9.68
2018-11-06T07:43:22.286Z,9.66
2018-11-06T07:44:30.369Z,9.69
2018-11-06T07:45:38.400Z,9.66
2018-11-06T07:46:46.465Z,9.76
2018-11-06T07:47:54.520Z,9.78
2018-11-06T07:49:02.577Z,9.78
2018-11-06T07:50:10.700Z,9.81
2018-11-06T07:51:18.720Z,9.81
2018-11-06T07:52:26.803Z,9.79
2018-11-06T07:53:34.840Z,9.86
2018-11-06T07:54:42.912Z,9.91
2018-11-06T07:55:51.092Z,9.81
2018-11-06T07:56:59.029Z,9.86
2018-11-06T07:58:07.080Z,9.87
2018-11-06T07:59:15.168Z,9.84
2018-11-06T08:00:23.219Z,9.86
2018-11-06T08:01:31.267Z,9.94
2018-11-06T08:02:39.363Z,9.96
2018-11-06T08:03:47.436Z,9.97
2018-11-06T08:04:55.461Z,10.02
2018-11-06T08:06:03.523Z,10.04
2018-11-06T08:07:11.591Z,10.09
2018-11-06T08:08:19.663Z,10.15
2018-11-06T08:09:27.722Z,10.17
2018-11-06T08:10:35.779Z,10.17
2018-11-06T08:11:43.836Z,10.27
2018-11-06T08:12:51.900Z,10.45
2018-11-06T08:13:59.971Z,10.55
2018-11-06T08:15:08.133Z,10.55
2018-11-06T08:16:16.093Z,10.52
2018-11-06T08:17:24.150Z,10.61
2018-11-06T08:18:32.205Z,10.64
2018-11-06T08:19:40.299Z,10.68
2018-11-06T08:20:48.420Z,10.71
2018-11-06T08:21:56.420Z,10.67
2018-11-06T08:23:04.479Z,10.73
2018-11-06T08:24:12.532Z,10.73
2018-11-06T08:25:20.609Z,10.82
2018-11-06T08:26:28.671Z,10.74
2018-11-06T08:27:36.745Z,10.81
2018-11-06T08:28:44.793Z,10.81
2018-11-06T08:29:52.849Z,10.82
2018-11-06T08:31:01.167Z,10.94
2018-11-06T08:32:09.315Z,10.97
2018-11-06T08:33:17.052Z,10.86
2018-11-06T08:34:25.151Z,10.91
2018-11-06T08:35:33.182Z,11.00
2018-11-06T08:36:41.335Z,10.97
2018-11-06T08:37:49.295Z,11.02
2018-11-06T08:38:57.359Z,11.03
2018-11-06T08:40:05.431Z,11.10
2018-11-06T08:41:13.488Z,11.07
2018-11-06T08:42:21.590Z,11.09
2018-11-06T08:43:29.621Z,11.10
2018-11-06T08:44:37.701Z,11.09
2018-11-06T08:45:45.733Z,11.15
2018-11-06T08:46:53.796Z,11.21
2018-11-06T08:48:01.909Z,11.17
2018-11-06T08:49:09.917Z,11.15
2018-11-06T08:50:17.983Z,11.21
2018-11-06T08:51:26.052Z,11.29
2018-11-06T08:52:34.130Z,11.27
2018-11-06T08:53:42.213Z,11.35
2018-11-06T08:54:50.266Z,11.35
2018-11-06T08:55:58.342Z,11.51
2018-11-06T08:57:06.393Z,11.52
2018-11-06T08:58:14.432Z,11.49
2018-11-06T08:59:22.504Z,11.57
2018-11-06T09:00:30.573Z,11.54
2018-11-06T09:01:38.642Z,11.62
2018-11-06T09:02:46.836Z,11.67
2018-11-06T09:03:54.757Z,11.70
2018-11-06T09:05:03.686Z,11.73
2018-11-06T09:06:10.899Z,11.85
2018-11-06T09:07:18.963Z,11.80
2018-11-06T09:08:27.037Z,11.96
2018-11-06T09:09:35.071Z,12.02
2018-11-06T09:10:43.160Z,12.02
2018-11-06T09:11:51.837Z,12.10
2018-11-06T09:12:59.882Z,12.10
2018-11-06T09:14:09.351Z,12.13
2018-11-06T09:15:18.834Z,12.28
2018-11-06T09:16:25.482Z,12.27
2018-11-06T09:17:33.545Z,12.29
2018-11-06T09:18:41.602Z,12.24
2018-11-06T09:19:49.686Z,12.39
2018-11-06T09:20:57.781Z,12.47
2018-11-06T09:22:05.817Z,12.50
2018-11-06T09:23:13.886Z,12.56
2018-11-06T09:24:21.922Z,12.41
2018-11-06T09:25:30.008Z,12.52
2018-11-06T09:26:39.467Z,12.53
2018-11-06T09:27:47.530Z,12.41
2018-11-06T09:28:57.747Z,12.49
2018-11-06T09:30:03.692Z,12.52
2018-11-06T09:31:11.725Z,12.47
2018-11-06T09:32:19.782Z,12.38
2018-11-06T09:33:27.848Z,12.39
2018-11-06T09:34:35.920Z,12.54
2018-11-06T09:35:43.992Z,12.54
2018-11-06T09:36:52.043Z,12.60
2018-11-06T09:38:00.098Z,12.65
2018-11-06T09:39:08.188Z,12.57
2018-11-06T09:40:16.238Z,12.68
2018-11-06T09:41:24.381Z,12.70
2018-11-06T09:42:32.369Z,12.70
2018-11-06T09:43:40.450Z,12.77
2018-11-06T09:44:48.507Z,12.85
2018-11-06T09:45:56.561Z,12.82
2018-11-06T09:47:04.624Z,12.96
2018-11-06T09:48:12.707Z,13.08
2018-11-06T09:49:20.760Z,12.96
2018-11-06T09:50:28.851Z,13.03
2018-11-06T09:51:36.897Z,13.14
2018-11-06T09:52:44.961Z,13.15
2018-11-06T09:53:53.041Z,13.19
2018-11-06T09:55:01.089Z,13.20
2018-11-06T09:56:09.169Z,13.17
2018-11-06T09:57:17.242Z,13.29
2018-11-06T09:58:25.289Z,13.39
2018-11-06T09:59:33.380Z,13.45
2018-11-06T10:00:41.434Z,13.46
2018-11-06T10:01:49.499Z,13.51
2018-11-06T10:02:57.551Z,13.57
2018-11-06T10:04:05.623Z,13.67
2018-11-06T10:05:13.709Z,13.57
2018-11-06T10:06:21.928Z,13.69
2018-11-06T10:07:29.954Z,13.73
2018-11-06T10:08:37.873Z,13.71
2018-11-06T10:09:45.975Z,13.75
2018-11-06T10:10:54.002Z,13.57
2018-11-06T10:12:02.084Z,13.55
2018-11-06T10:13:10.150Z,13.60
2018-11-06T10:14:18.216Z,13.69
2018-11-06T10:15:26.318Z,13.63
2018-11-06T10:16:34.387Z,13.67
2018-11-06T10:17:42.439Z,13.78
2018-11-06T10:18:50.489Z,13.71
2018-11-06T10:19:58.533Z,13.66
2018-11-06T10:21:06.756Z,13.70
2018-11-06T10:22:14.687Z,13.81
2018-11-06T10:23:22.738Z,13.88
2018-11-06T10:24:30.807Z,13.82
2018-11-06T10:25:38.863Z,13.91
2018-11-06T10:26:46.974Z,13.91
2018-11-06T10:27:55.006Z,14.07
2018-11-06T10:29:03.089Z,14.00
2018-11-06T10:30:11.162Z,13.99
2018-11-06T10:31:19.203Z,14.03
2018-11-06T10:32:27.290Z,14.04
2018-11-06T10:33:35.346Z,14.14
2018-11-06T10:34:43.434Z,14.24
2018-11-06T10:35:51.471Z,14.24
2018-11-06T10:36:59.584Z,14.25
2018-11-06T10:38:07.645Z,14.24
2018-11-06T10:39:15.690Z,14.29
2018-11-06T10:40:23.796Z,14.24
2018-11-06T10:41:31.791Z,14.24
2018-11-06T10:42:39.888Z,14.22
2018-11-06T10:43:48.038Z,14.24
2018-11-06T10:44:56.026Z,14.27
2018-11-06T10:46:04.086Z,14.29
2018-11-06T10:47:12.153Z,14.42
2018-11-06T10:48:20.203Z,14.42
2018-11-06T10:49:28.281Z,14.39
2018-11-06T10:50:36.343Z,14.42
2018-11-06T10:51:44.430Z,14.18
2018-11-06T10:52:52.485Z,14.29
2018-11-06T10:54:00.573Z,14.29
2018-11-06T10:55:08.618Z,14.28
2018-11-06T10:56:16.705Z,14.40
2018-11-06T10:57:24.753Z,14.25
2018-11-06T10:58:32.822Z,14.29
2018-11-06T10:59:40.861Z,14.46
2018-11-06T11:00:48.946Z,14.37
2018-11-06T11:01:57.011Z,14.32
2018-11-06T11:03:05.116Z,14.27
2018-11-06T11:04:13.193Z,14.42
2018-11-06T11:05:21.208Z,14.45
2018-11-06T11:06:29.293Z,14.39
2018-11-06T11:07:37.359Z,14.54
2018-11-06T11:08:45.421Z,14.62
2018-11-06T11:09:53.492Z,14.73
2018-11-06T11:11:01.553Z,14.81
2018-11-06T11:12:09.613Z,14.83
2018-11-06T11:13:17.758Z,14.84
2018-11-06T11:14:25.745Z,14.86
2018-11-06T11:15:33.837Z,14.91
2018-11-06T11:16:41.908Z,14.95
2018-11-06T11:17:49.958Z,14.95
2018-11-06T11:18:58.026Z,15.03
2018-11-06T11:20:06.196Z,15.10
2018-11-06T11:21:14.163Z,15.19
2018-11-06T11:22:22.238Z,15.23
2018-11-06T11:23:30.275Z,15.21
2018-11-06T11:24:38.366Z,15.23
2018-11-06T11:25:46.513Z,15.19
2018-11-06T11:26:54.487Z,15.25
2018-11-06T11:28:02.592Z,15.07
2018-11-06T11:29:10.613Z,15.07
2018-11-06T11:30:18.710Z,14.92
2018-11-06T11:31:26.814Z,14.91
2018-11-06T11:32:34.827Z,14.86
2018-11-06T11:33:42.910Z,14.80
2018-11-06T11:34:50.933Z,14.80
2018-11-06T11:35:59.017Z,14.80
2018-11-06T11:37:07.088Z,14.84
2018-11-06T11:38:15.151Z,14.98
2018-11-06T11:39:23.224Z,14.95
2018-11-06T11:40:31.302Z,14.98
2018-11-06T11:41:39.387Z,15.09
2018-11-06T11:42:47.424Z,15.13
2018-11-06T11:43:55.497Z,15.13
2018-11-06T11:46:24.377Z,15.14
2018-11-06T11:47:35.139Z,15.17
2018-11-06T11:48:42.089Z,15.20
2018-11-06T11:49:50.151Z,15.17
2018-11-06T11:50:59.349Z,15.28
2018-11-06T11:52:06.287Z,15.38
2018-11-06T11:53:14.344Z,15.36
2018-11-06T11:54:23.850Z,15.38
2018-11-06T11:55:31.895Z,15.13
2018-11-06T11:56:39.977Z,15.06
2018-11-06T11:57:48.027Z,15.10
2018-11-06T11:58:56.108Z,15.16
2018-11-06T12:00:04.195Z,14.95
2018-11-06T12:01:12.243Z,14.94
2018-11-06T12:02:20.348Z,14.96
2018-11-06T12:03:28.374Z,15.03
2018-11-06T12:04:36.438Z,15.07
2018-11-06T12:05:44.506Z,15.11
2018-11-06T12:06:52.584Z,15.14
2018-11-06T12:08:00.625Z,15.21
2018-11-06T12:09:08.696Z,15.17
2018-11-06T12:10:16.768Z,15.23
2018-11-06T12:11:24.823Z,15.19
2018-11-06T12:12:32.904Z,15.16
2018-11-06T12:13:40.975Z,15.17
2018-11-06T12:14:49.036Z,15.16
2018-11-06T12:15:57.096Z,15.19
2018-11-06T12:17:05.212Z,15.14
2018-11-06T12:18:13.387Z,15.20
2018-11-06T12:19:21.302Z,15.14
2018-11-06T12:20:29.372Z,15.23
2018-11-06T12:21:37.436Z,15.19
2018-11-06T12:22:45.494Z,15.20
2018-11-06T12:23:53.573Z,15.13
2018-11-06T12:25:01.869Z,15.07
2018-11-06T12:26:09.716Z,15.25
2018-11-06T12:27:17.776Z,15.21
2018-11-06T12:28:25.848Z,15.20
2018-11-06T12:29:33.906Z,15.21
2018-11-06T12:30:41.963Z,15.23
2018-11-06T12:31:50.060Z,15.17
2018-11-06T12:34:12.037Z,14.99
2018-11-06T12:35:20.107Z,14.99
2018-11-06T12:36:28.203Z,15.07
2018-11-06T12:37:47.128Z,15.06
2018-11-06T12:38:44.276Z,15.02
2018-11-06T12:39:55.199Z,14.95
2018-11-06T12:41:03.034Z,14.89
2018-11-06T12:42:13.104Z,14.86
2018-11-06T12:43:21.289Z,14.83
2018-11-06T12:44:29.260Z,14.86
2018-11-06T12:45:37.310Z,14.83
2018-11-06T12:46:45.390Z,14.75
2018-11-06T12:47:53.466Z,14.86
2018-11-06T12:49:04.885Z,14.80
2018-11-06T12:50:10.265Z,14.75
2018-11-06T12:51:18.267Z,14.62
2018-11-06T12:52:26.346Z,14.65
2018-11-06T12:53:34.388Z,14.72
2018-11-06T12:54:42.456Z,14.62
2018-11-06T12:55:50.532Z,14.61
2018-11-06T12:56:58.606Z,14.64
2018-11-06T12:58:06.675Z,14.55
2018-11-06T12:59:14.718Z,14.54
2018-11-06T13:00:22.810Z,14.58
2018-11-06T13:01:30.849Z,14.58
2018-11-06T13:02:38.926Z,14.65
2018-11-06T13:03:47.056Z,14.69
2018-11-06T13:04:55.044Z,14.57
2018-11-06T13:06:03.125Z,14.52
2018-11-06T13:07:11.194Z,14.61
2018-11-06T13:08:19.256Z,14.54
2018-11-06T13:09:27.309Z,14.57
2018-11-06T13:10:35.400Z,14.51
2018-11-06T13:11:43.475Z,14.47
2018-11-06T13:12:51.520Z,14.54
2018-11-06T13:13:59.577Z,14.51
2018-11-06T13:15:07.674Z,14.55
2018-11-06T13:16:16.292Z,14.58
2018-11-06T13:17:23.789Z,14.60
2018-11-06T13:18:32.519Z,14.55
2018-11-06T13:19:40.587Z,14.55
2018-11-06T13:20:48.669Z,14.61
2018-11-06T13:21:56.036Z,14.61
2018-11-06T13:23:04.119Z,14.62
2018-11-06T13:24:12.212Z,14.64
2018-11-06T13:25:20.279Z,14.62
2018-11-06T13:26:28.499Z,14.58
2018-11-06T13:27:36.389Z,14.55
2018-11-06T13:28:44.436Z,14.57
2018-11-06T13:29:52.499Z,14.47
2018-11-06T13:31:00.589Z,14.47
2018-11-06T13:32:08.663Z,14.51
2018-11-06T13:33:16.713Z,14.46
2018-11-06T13:34:24.866Z,14.40
2018-11-06T13:35:32.860Z,14.45
2018-11-06T13:36:40.912Z,14.33
2018-11-06T13:37:48.985Z,14.39
2018-11-06T13:38:57.047Z,14.40
2018-11-06T13:40:05.134Z,14.28
2018-11-06T13:41:13.197Z,14.32
2018-11-06T13:42:21.402Z,14.32
2018-11-06T13:43:29.415Z,14.27
2018-11-06T13:44:37.691Z,14.15
2018-11-06T13:45:45.656Z,14.22
2018-11-06T13:46:53.521Z,14.21
2018-11-06T13:48:01.630Z,14.21
2018-11-06T13:49:09.701Z,14.15
2018-11-06T13:50:17.722Z,14.12
2018-11-06T13:51:25.786Z,14.22
2018-11-06T13:52:33.848Z,14.21
2018-11-06T13:53:41.897Z,14.12
2018-11-06T13:54:49.999Z,14.09
2018-11-06T13:55:58.060Z,14.02
2018-11-06T13:57:06.111Z,14.10
2018-11-06T13:58:14.174Z,14.07
2018-11-06T13:59:22.240Z,14.04
2018-11-06T14:00:30.297Z,14.04
2018-11-06T14:01:38.377Z,14.02
2018-11-06T14:02:46.441Z,14.07
2018-11-06T14:03:54.494Z,14.03
2018-11-06T14:05:02.582Z,14.04
2018-11-06T14:06:10.640Z,14.09
2018-11-06T14:07:18.701Z,14.04
2018-11-06T14:08:26.785Z,14.00
2018-11-06T14:09:34.819Z,13.91
2018-11-06T14:10:42.897Z,13.95
2018-11-06T14:11:50.975Z,13.91
2018-11-06T14:12:59.022Z,13.87
2018-11-06T14:14:07.111Z,13.87
2018-11-06T14:15:15.159Z,13.79
2018-11-06T14:16:23.228Z,13.84
2018-11-06T14:17:31.303Z,13.67
2018-11-06T14:18:39.368Z,13.75
2018-11-06T14:19:47.427Z,13.73
2018-11-06T14:20:55.509Z,13.62
2018-11-06T14:22:03.551Z,13.66
2018-11-06T14:23:11.614Z,13.67
2018-11-06T14:24:19.704Z,13.52
2018-11-06T14:25:27.744Z,13.64
2018-11-06T14:26:35.821Z,13.49
2018-11-06T14:27:43.882Z,13.51
2018-11-06T14:28:51.949Z,13.46
2018-11-06T14:30:00.014Z,13.48
2018-11-06T14:31:08.090Z,13.44
2018-11-06T14:32:16.150Z,13.44
2018-11-06T14:33:24.210Z,13.32
2018-11-06T14:34:32.282Z,13.29
2018-11-06T14:35:40.349Z,13.20
2018-11-06T14:36:48.381Z,13.26
2018-11-06T14:37:56.475Z,13.20
2018-11-06T14:39:04.549Z,13.10
2018-11-06T14:40:12.609Z,13.10
2018-11-06T14:41:20.672Z,13.11
2018-11-06T14:42:28.804Z,13.05
2018-11-06T14:43:36.794Z,13.04
2018-11-06T14:44:44.848Z,12.96
2018-11-06T14:45:52.941Z,13.03
2018-11-06T14:47:00.979Z,12.93
2018-11-06T14:48:09.083Z,12.86
2018-11-06T14:49:17.272Z,12.79
2018-11-06T14:50:25.177Z,12.79
2018-11-06T14:51:33.246Z,12.78
2018-11-06T14:52:41.311Z,12.78
2018-11-06T14:53:49.374Z,12.74
2018-11-06T14:54:57.471Z,12.67